Accueil
METAR-TAF:

METAR-TAF

Aéroports :

Oberpfaffenhofen, Allemagne

latitude: 48-05N, longitude: 011-17E, altitude: 600 m

Observation

Le bulletin a été fait il y a 39 minutes, à 05:50 UTC
Vent 9 kt de est
Température 12°C
Humidité 67%
Pression 1011 hPa
Visibilité 10 km ou plus
pas de nuages en-dessous de 1500 mètres et pas de cumulonimbus.

METAR: EDMO 250550Z 10009KT CAVOK 12/06 Q1011

Heure: 08:29 (06:29 UTC)

Prévision

Le bulletin a été fait il y a 1 heure et 29 minutes, à 05:00 UTC
Prévision valable du 25 à 06 UTC au 25 à 15 UTC
Vent 4 kt de est
Visibilité 10 km ou plus
pas de nuages en-dessous de 1500 mètres et pas de cumulonimbus.
Evoluant progressivement
du 25 à 09 UTC au 25 à 11 UTC
Vent 9 kt de sud-est
Evoluant progressivement
du 25 à 14 UTC au 25 à 15 UTC
Vent 14 kt de sud/sud-est

TAF: EDMO 250500Z 2506/2515 10004KT CAVOK BECMG 2509/2511 14009KT BECMG 2514/2515 16014KT

Observations et prévisions météorologiques de plus de 4000 aéroports (messages METAR et TAF).

Les stations disponibles sont représentées par des disques jaunes et rouges sur la carte.

Passer la souris dessus pour voir le nom de la station.

Cliquer dessus pour voir les observations et prévisions météorologiques.

Pour changer de carte: cliquez sur les boutons verts avec une croix noire pour zoomer, sur le bouton vert avec un tiret pour effectuer un zoom arrière, ou sur les flèches vertes pour les cartes adjacentes.


METAR-TAF: